sensor_id;sensor_type;location;lat;lon;timestamp;temperature;humidity
48752;DHT22;34544;48.836;9.174;2023-09-19T00:02:18;18.50;99.90
48752;DHT22;34544;48.836;9.174;2023-09-19T00:04:44;18.50;99.90
48752;DHT22;34544;48.836;9.174;2023-09-19T00:07:10;18.40;99.90
48752;DHT22;34544;48.836;9.174;2023-09-19T00:09:35;18.40;99.90
48752;DHT22;34544;48.836;9.174;2023-09-19T00:12:05;18.40;99.90
48752;DHT22;34544;48.836;9.174;2023-09-19T00:14:32;18.40;99.90
48752;DHT22;34544;48.836;9.174;2023-09-19T00:17:04;18.30;99.90
48752;DHT22;34544;48.836;9.174;2023-09-19T00:19:35;18.30;99.90
48752;DHT22;34544;48.836;9.174;2023-09-19T00:22:01;18.30;99.90
48752;DHT22;34544;48.836;9.174;2023-09-19T00:24:27;18.30;99.90
48752;DHT22;34544;48.836;9.174;2023-09-19T00:26:54;18.30;99.90
48752;DHT22;34544;48.836;9.174;2023-09-19T00:29:21;18.20;99.90
48752;DHT22;34544;48.836;9.174;2023-09-19T00:31:50;18.30;99.90
48752;DHT22;34544;48.836;9.174;2023-09-19T00:34:15;18.20;99.90
48752;DHT22;34544;48.836;9.174;2023-09-19T00:36:43;18.30;99.90
48752;DHT22;34544;48.836;9.174;2023-09-19T00:39:10;18.20;99.90
48752;DHT22;34544;48.836;9.174;2023-09-19T00:41:36;18.20;99.90
48752;DHT22;34544;48.836;9.174;2023-09-19T00:44:02;18.20;99.90
48752;DHT22;34544;48.836;9.174;2023-09-19T00:46:30;18.20;99.90
48752;DHT22;34544;48.836;9.174;2023-09-19T00:48:58;18.20;99.90
48752;DHT22;34544;48.836;9.174;2023-09-19T00:51:25;18.10;99.90
48752;DHT22;34544;48.836;9.174;2023-09-19T00:53:52;18.10;99.90
48752;DHT22;34544;48.836;9.174;2023-09-19T00:56:18;18.10;99.90
48752;DHT22;34544;48.836;9.174;2023-09-19T00:58:45;18.10;99.90
48752;DHT22;34544;48.836;9.174;2023-09-19T01:01:13;18.10;99.90
48752;DHT22;34544;48.836;9.174;2023-09-19T01:03:41;18.10;99.90
48752;DHT22;34544;48.836;9.174;2023-09-19T01:06:07;18.10;99.90
48752;DHT22;34544;48.836;9.174;2023-09-19T01:08:34;18.00;99.90
48752;DHT22;34544;48.836;9.174;2023-09-19T01:22:28;17.90;99.90
48752;DHT22;34544;48.836;9.174;2023-09-19T01:30:56;17.90;99.90
48752;DHT22;34544;48.836;9.174;2023-09-19T01:33:23;17.90;99.90
48752;DHT22;34544;48.836;9.174;2023-09-19T01:35:49;17.90;99.90
48752;DHT22;34544;48.836;9.174;2023-09-19T01:38:15;17.90;99.90
48752;DHT22;34544;48.836;9.174;2023-09-19T01:40:43;17.90;99.90
48752;DHT22;34544;48.836;9.174;2023-09-19T01:43:33;17.90;99.90
48752;DHT22;34544;48.836;9.174;2023-09-19T01:46:21;17.90;99.90
48752;DHT22;34544;48.836;9.174;2023-09-19T01:51:42;17.80;99.90
48752;DHT22;34544;48.836;9.174;2023-09-19T01:54:12;17.80;99.90
48752;DHT22;34544;48.836;9.174;2023-09-19T01:56:48;17.80;99.90
48752;DHT22;34544;48.836;9.174;2023-09-19T01:59:20;17.80;99.90
48752;DHT22;34544;48.836;9.174;2023-09-19T02:01:48;17.80;99.90
48752;DHT22;34544;48.836;9.174;2023-09-19T02:04:15;17.70;99.90
48752;DHT22;34544;48.836;9.174;2023-09-19T02:06:41;17.70;99.90
48752;DHT22;34544;48.836;9.174;2023-09-19T02:09:07;17.70;99.90
48752;DHT22;34544;48.836;9.174;2023-09-19T02:11:34;17.70;99.90
48752;DHT22;34544;48.836;9.174;2023-09-19T02:14:00;17.60;99.90
48752;DHT22;34544;48.836;9.174;2023-09-19T02:16:26;17.60;99.90
48752;DHT22;34544;48.836;9.174;2023-09-19T02:18:54;17.60;99.90
48752;DHT22;34544;48.836;9.174;2023-09-19T02:21:19;17.50;99.90
48752;DHT22;34544;48.836;9.174;2023-09-19T02:23:47;17.50;99.90
48752;DHT22;34544;48.836;9.174;2023-09-19T02:26:13;17.50;99.90
48752;DHT22;34544;48.836;9.174;2023-09-19T02:28:40;17.50;99.90
48752;DHT22;34544;48.836;9.174;2023-09-19T02:31:08;17.50;99.90
48752;DHT22;34544;48.836;9.174;2023-09-19T02:33:34;17.40;99.90
48752;DHT22;34544;48.836;9.174;2023-09-19T02:36:00;17.40;99.90
48752;DHT22;34544;48.836;9.174;2023-09-19T02:38:27;17.40;99.90
48752;DHT22;34544;48.836;9.174;2023-09-19T02:40:53;17.30;99.90
48752;DHT22;34544;48.836;9.174;2023-09-19T02:43:21;17.30;99.90
48752;DHT22;34544;48.836;9.174;2023-09-19T02:45:49;17.30;99.90
48752;DHT22;34544;48.836;9.174;2023-09-19T02:48:16;17.20;99.90
48752;DHT22;34544;48.836;9.174;2023-09-19T02:50:42;17.10;99.90
48752;DHT22;34544;48.836;9.174;2023-09-19T02:53:10;17.10;99.90
48752;DHT22;34544;48.836;9.174;2023-09-19T02:55:38;17.10;99.90
48752;DHT22;34544;48.836;9.174;2023-09-19T02:58:06;17.10;99.90
48752;DHT22;34544;48.836;9.174;2023-09-19T03:00:33;17.10;99.90
48752;DHT22;34544;48.836;9.174;2023-09-19T03:03:01;17.10;99.90
48752;DHT22;34544;48.836;9.174;2023-09-19T03:05:27;17.20;99.90
48752;DHT22;34544;48.836;9.174;2023-09-19T03:07:56;17.20;99.90
48752;DHT22;34544;48.836;9.174;2023-09-19T03:10:23;17.20;99.90
48752;DHT22;34544;48.836;9.174;2023-09-19T03:12:50;17.30;99.90
48752;DHT22;34544;48.836;9.174;2023-09-19T03:15:17;17.30;99.90
48752;DHT22;34544;48.836;9.174;2023-09-19T03:17:46;17.40;99.90
48752;DHT22;34544;48.836;9.174;2023-09-19T03:20:15;17.50;99.90
48752;DHT22;34544;48.836;9.174;2023-09-19T03:22:43;17.50;99.90
48752;DHT22;34544;48.836;9.174;2023-09-19T03:25:09;17.50;99.90
48752;DHT22;34544;48.836;9.174;2023-09-19T03:27:39;17.50;99.90
48752;DHT22;34544;48.836;9.174;2023-09-19T03:30:06;17.50;99.90
48752;DHT22;34544;48.836;9.174;2023-09-19T03:32:35;17.60;99.90
48752;DHT22;34544;48.836;9.174;2023-09-19T03:35:02;17.60;99.90
48752;DHT22;34544;48.836;9.174;2023-09-19T03:37:31;17.50;99.90
48752;DHT22;34544;48.836;9.174;2023-09-19T03:39:58;17.60;99.90
48752;DHT22;34544;48.836;9.174;2023-09-19T03:42:24;17.60;99.90
48752;DHT22;34544;48.836;9.174;2023-09-19T03:44:52;17.60;99.90
48752;DHT22;34544;48.836;9.174;2023-09-19T03:47:18;17.60;99.90
48752;DHT22;34544;48.836;9.174;2023-09-19T03:49:48;17.70;99.90
48752;DHT22;34544;48.836;9.174;2023-09-19T03:52:13;17.70;99.90
48752;DHT22;34544;48.836;9.174;2023-09-19T03:54:41;17.70;99.90
48752;DHT22;34544;48.836;9.174;2023-09-19T03:57:07;17.70;99.90
48752;DHT22;34544;48.836;9.174;2023-09-19T03:59:33;17.70;99.90
48752;DHT22;34544;48.836;9.174;2023-09-19T04:01:59;17.70;99.90
48752;DHT22;34544;48.836;9.174;2023-09-19T04:04:24;17.70;99.90
48752;DHT22;34544;48.836;9.174;2023-09-19T04:06:53;17.70;99.90
48752;DHT22;34544;48.836;9.174;2023-09-19T04:09:19;17.70;99.90
48752;DHT22;34544;48.836;9.174;2023-09-19T04:11:45;17.70;99.90
48752;DHT22;34544;48.836;9.174;2023-09-19T04:14:11;17.60;99.90
48752;DHT22;34544;48.836;9.174;2023-09-19T04:16:37;17.50;99.90
48752;DHT22;34544;48.836;9.174;2023-09-19T04:19:05;17.40;99.90
48752;DHT22;34544;48.836;9.174;2023-09-19T04:21:31;17.40;99.90
48752;DHT22;34544;48.836;9.174;2023-09-19T04:23:57;17.30;99.90
48752;DHT22;34544;48.836;9.174;2023-09-19T04:26:23;17.30;99.90
48752;DHT22;34544;48.836;9.174;2023-09-19T04:28:49;17.20;99.90
48752;DHT22;34544;48.836;9.174;2023-09-19T04:31:15;17.20;99.90
48752;DHT22;34544;48.836;9.174;2023-09-19T04:33:42;17.20;99.90
48752;DHT22;34544;48.836;9.174;2023-09-19T04:36:09;17.20;99.90
48752;DHT22;34544;48.836;9.174;2023-09-19T04:38:35;17.20;99.90
48752;DHT22;34544;48.836;9.174;2023-09-19T04:41:00;17.20;99.90
48752;DHT22;34544;48.836;9.174;2023-09-19T04:43:26;17.20;99.90
48752;DHT22;34544;48.836;9.174;2023-09-19T04:45:52;17.20;99.90
48752;DHT22;34544;48.836;9.174;2023-09-19T04:48:24;17.20;99.90
48752;DHT22;34544;48.836;9.174;2023-09-19T04:50:50;17.20;99.90
48752;DHT22;34544;48.836;9.174;2023-09-19T04:53:17;17.20;99.90
48752;DHT22;34544;48.836;9.174;2023-09-19T04:55:43;17.20;99.90
48752;DHT22;34544;48.836;9.174;2023-09-19T04:58:09;17.20;99.90
48752;DHT22;34544;48.836;9.174;2023-09-19T05:00:35;17.20;99.90
48752;DHT22;34544;48.836;9.174;2023-09-19T05:03:01;17.20;99.90
48752;DHT22;34544;48.836;9.174;2023-09-19T05:05:30;17.20;99.90
48752;DHT22;34544;48.836;9.174;2023-09-19T05:07:55;17.10;99.90
48752;DHT22;34544;48.836;9.174;2023-09-19T05:10:21;17.10;99.90
48752;DHT22;34544;48.836;9.174;2023-09-19T05:12:47;17.00;99.90
48752;DHT22;34544;48.836;9.174;2023-09-19T05:15:14;17.00;99.90
48752;DHT22;34544;48.836;9.174;2023-09-19T05:17:40;17.00;99.90
48752;DHT22;34544;48.836;9.174;2023-09-19T05:20:06;16.90;99.90
48752;DHT22;34544;48.836;9.174;2023-09-19T05:22:39;16.90;99.90
48752;DHT22;34544;48.836;9.174;2023-09-19T05:25:06;17.00;99.90
48752;DHT22;34544;48.836;9.174;2023-09-19T05:27:32;17.00;99.90
48752;DHT22;34544;48.836;9.174;2023-09-19T05:29:59;17.00;99.90
48752;DHT22;34544;48.836;9.174;2023-09-19T05:32:25;16.90;99.90
48752;DHT22;34544;48.836;9.174;2023-09-19T05:34:50;16.90;99.90
48752;DHT22;34544;48.836;9.174;2023-09-19T05:37:19;16.90;99.90
48752;DHT22;34544;48.836;9.174;2023-09-19T05:39:45;16.90;99.90
48752;DHT22;34544;48.836;9.174;2023-09-19T05:42:11;16.80;99.90
48752;DHT22;34544;48.836;9.174;2023-09-19T05:44:37;16.80;99.90
48752;DHT22;34544;48.836;9.174;2023-09-19T05:47:03;16.80;99.90
48752;DHT22;34544;48.836;9.174;2023-09-19T05:49:29;16.70;99.90
48752;DHT22;34544;48.836;9.174;2023-09-19T05:51:54;16.70;99.90
48752;DHT22;34544;48.836;9.174;2023-09-19T05:54:22;16.80;99.90
48752;DHT22;34544;48.836;9.174;2023-09-19T05:56:47;16.70;99.90
48752;DHT22;34544;48.836;9.174;2023-09-19T05:59:14;16.70;99.90
48752;DHT22;34544;48.836;9.174;2023-09-19T06:01:42;16.70;99.90
48752;DHT22;34544;48.836;9.174;2023-09-19T06:04:08;16.70;99.90
48752;DHT22;34544;48.836;9.174;2023-09-19T06:06:33;16.70;99.90
48752;DHT22;34544;48.836;9.174;2023-09-19T06:09:04;16.60;99.90
48752;DHT22;34544;48.836;9.174;2023-09-19T06:11:37;16.50;99.90
48752;DHT22;34544;48.836;9.174;2023-09-19T06:14:03;16.30;99.90
48752;DHT22;34544;48.836;9.174;2023-09-19T06:16:29;16.30;99.90
48752;DHT22;34544;48.836;9.174;2023-09-19T06:18:55;16.20;99.90
48752;DHT22;34544;48.836;9.174;2023-09-19T06:21:24;16.20;99.90
48752;DHT22;34544;48.836;9.174;2023-09-19T06:23:50;16.20;99.90
48752;DHT22;34544;48.836;9.174;2023-09-19T06:26:16;16.10;99.90
48752;DHT22;34544;48.836;9.174;2023-09-19T06:28:42;16.20;99.90
48752;DHT22;34544;48.836;9.174;2023-09-19T06:31:09;16.20;99.90
48752;DHT22;34544;48.836;9.174;2023-09-19T06:33:38;16.20;99.90
48752;DHT22;34544;48.836;9.174;2023-09-19T06:36:05;16.30;99.90
48752;DHT22;34544;48.836;9.174;2023-09-19T06:38:32;16.40;99.90
48752;DHT22;34544;48.836;9.174;2023-09-19T06:41:00;16.40;99.90
48752;DHT22;34544;48.836;9.174;2023-09-19T06:43:35;16.50;99.90
48752;DHT22;34544;48.836;9.174;2023-09-19T06:46:01;16.60;99.90
48752;DHT22;34544;48.836;9.174;2023-09-19T06:48:27;16.60;99.90
48752;DHT22;34544;48.836;9.174;2023-09-19T06:50:55;16.70;99.90
48752;DHT22;34544;48.836;9.174;2023-09-19T06:53:21;16.80;99.90
48752;DHT22;34544;48.836;9.174;2023-09-19T06:55:49;16.80;99.90
48752;DHT22;34544;48.836;9.174;2023-09-19T06:58:15;16.90;99.90
48752;DHT22;34544;48.836;9.174;2023-09-19T07:00:42;17.00;99.90
48752;DHT22;34544;48.836;9.174;2023-09-19T07:03:08;17.00;99.90
48752;DHT22;34544;48.836;9.174;2023-09-19T07:05:38;17.10;99.90
48752;DHT22;34544;48.836;9.174;2023-09-19T07:08:07;17.30;99.90
48752;DHT22;34544;48.836;9.174;2023-09-19T07:10:34;17.40;99.90
48752;DHT22;34544;48.836;9.174;2023-09-19T07:13:00;17.50;99.90
48752;DHT22;34544;48.836;9.174;2023-09-19T07:15:27;17.60;99.90
48752;DHT22;34544;48.836;9.174;2023-09-19T07:17:54;17.70;99.90
48752;DHT22;34544;48.836;9.174;2023-09-19T07:20:22;17.80;99.90
48752;DHT22;34544;48.836;9.174;2023-09-19T07:22:51;17.80;99.90
48752;DHT22;34544;48.836;9.174;2023-09-19T07:25:17;17.90;99.90
48752;DHT22;34544;48.836;9.174;2023-09-19T07:27:43;17.90;99.90
48752;DHT22;34544;48.836;9.174;2023-09-19T07:30:09;17.90;99.90
48752;DHT22;34544;48.836;9.174;2023-09-19T07:32:35;18.00;99.90
48752;DHT22;34544;48.836;9.174;2023-09-19T07:35:06;18.10;99.90
48752;DHT22;34544;48.836;9.174;2023-09-19T07:37:32;18.10;99.90
48752;DHT22;34544;48.836;9.174;2023-09-19T07:40:05;18.30;99.90
48752;DHT22;34544;48.836;9.174;2023-09-19T07:42:35;18.40;99.90
48752;DHT22;34544;48.836;9.174;2023-09-19T07:45:02;18.40;99.90
48752;DHT22;34544;48.836;9.174;2023-09-19T07:47:29;18.60;99.90
48752;DHT22;34544;48.836;9.174;2023-09-19T07:49:56;18.80;99.90
48752;DHT22;34544;48.836;9.174;2023-09-19T07:52:21;18.90;99.90
48752;DHT22;34544;48.836;9.174;2023-09-19T07:54:48;19.10;99.90
48752;DHT22;34544;48.836;9.174;2023-09-19T07:57:15;19.10;99.90
48752;DHT22;34544;48.836;9.174;2023-09-19T07:59:41;19.20;99.90
48752;DHT22;34544;48.836;9.174;2023-09-19T08:02:07;19.30;99.90
48752;DHT22;34544;48.836;9.174;2023-09-19T08:04:44;19.30;99.90
48752;DHT22;34544;48.836;9.174;2023-09-19T08:07:12;19.40;99.90
48752;DHT22;34544;48.836;9.174;2023-09-19T08:09:38;19.60;99.90
48752;DHT22;34544;48.836;9.174;2023-09-19T08:12:05;19.80;99.90
48752;DHT22;34544;48.836;9.174;2023-09-19T08:14:33;20.00;99.90
48752;DHT22;34544;48.836;9.174;2023-09-19T08:16:59;20.20;99.90
48752;DHT22;34544;48.836;9.174;2023-09-19T08:19:26;20.40;99.90
48752;DHT22;34544;48.836;9.174;2023-09-19T08:22:00;20.60;99.90
48752;DHT22;34544;48.836;9.174;2023-09-19T08:24:27;20.80;99.90
48752;DHT22;34544;48.836;9.174;2023-09-19T08:26:54;20.80;99.90
48752;DHT22;34544;48.836;9.174;2023-09-19T08:29:21;20.70;99.90
48752;DHT22;34544;48.836;9.174;2023-09-19T08:31:46;20.80;99.90
48752;DHT22;34544;48.836;9.174;2023-09-19T08:34:16;20.90;99.90
48752;DHT22;34544;48.836;9.174;2023-09-19T08:36:42;21.00;99.90
48752;DHT22;34544;48.836;9.174;2023-09-19T08:39:09;21.10;99.90
48752;DHT22;34544;48.836;9.174;2023-09-19T08:41:35;21.10;99.90
48752;DHT22;34544;48.836;9.174;2023-09-19T08:44:00;21.10;99.90
48752;DHT22;34544;48.836;9.174;2023-09-19T08:46:30;21.00;99.90
48752;DHT22;34544;48.836;9.174;2023-09-19T08:49:14;21.10;99.90
48752;DHT22;34544;48.836;9.174;2023-09-19T08:51:43;21.20;99.90
48752;DHT22;34544;48.836;9.174;2023-09-19T08:54:33;21.50;99.90
48752;DHT22;34544;48.836;9.174;2023-09-19T08:57:06;21.70;99.90
48752;DHT22;34544;48.836;9.174;2023-09-19T08:59:38;21.70;99.90
48752;DHT22;34544;48.836;9.174;2023-09-19T09:02:10;21.80;99.90
48752;DHT22;34544;48.836;9.174;2023-09-19T09:04:41;21.90;99.90
48752;DHT22;34544;48.836;9.174;2023-09-19T09:07:12;22.00;99.90
48752;DHT22;34544;48.836;9.174;2023-09-19T09:09:44;21.90;99.90
48752;DHT22;34544;48.836;9.174;2023-09-19T09:12:14;21.90;99.90
48752;DHT22;34544;48.836;9.174;2023-09-19T09:14:44;21.90;99.90
48752;DHT22;34544;48.836;9.174;2023-09-19T09:17:11;21.90;99.90
48752;DHT22;34544;48.836;9.174;2023-09-19T09:19:37;21.90;99.90
48752;DHT22;34544;48.836;9.174;2023-09-19T09:22:10;21.90;99.90
48752;DHT22;34544;48.836;9.174;2023-09-19T09:24:37;22.20;99.90
48752;DHT22;34544;48.836;9.174;2023-09-19T09:27:06;22.20;99.90
48752;DHT22;34544;48.836;9.174;2023-09-19T09:29:47;22.20;99.90
48752;DHT22;34544;48.836;9.174;2023-09-19T09:34:54;21.70;99.90
48752;DHT22;34544;48.836;9.174;2023-09-19T09:37:21;21.30;99.90
48752;DHT22;34544;48.836;9.174;2023-09-19T09:40:00;21.10;99.90
48752;DHT22;34544;48.836;9.174;2023-09-19T09:42:45;21.00;99.90
48752;DHT22;34544;48.836;9.174;2023-09-19T09:45:22;21.30;99.90
48752;DHT22;34544;48.836;9.174;2023-09-19T09:48:03;21.20;99.90
48752;DHT22;34544;48.836;9.174;2023-09-19T09:50:30;21.20;99.90
48752;DHT22;34544;48.836;9.174;2023-09-19T09:53:22;21.10;99.90
48752;DHT22;34544;48.836;9.174;2023-09-19T09:56:00;21.20;99.90
48752;DHT22;34544;48.836;9.174;2023-09-19T09:58:26;21.50;99.90
48752;DHT22;34544;48.836;9.174;2023-09-19T10:00:56;21.50;99.90
48752;DHT22;34544;48.836;9.174;2023-09-19T10:03:32;21.60;99.90
48752;DHT22;34544;48.836;9.174;2023-09-19T10:06:00;21.50;99.90
48752;DHT22;34544;48.836;9.174;2023-09-19T10:08:28;21.60;99.90
48752;DHT22;34544;48.836;9.174;2023-09-19T10:10:57;21.60;99.90
48752;DHT22;34544;48.836;9.174;2023-09-19T10:13:31;21.70;99.90
48752;DHT22;34544;48.836;9.174;2023-09-19T10:16:05;21.70;99.90
48752;DHT22;34544;48.836;9.174;2023-09-19T10:18:36;21.80;99.90
48752;DHT22;34544;48.836;9.174;2023-09-19T10:21:03;22.00;99.90
48752;DHT22;34544;48.836;9.174;2023-09-19T10:23:31;22.20;99.90
48752;DHT22;34544;48.836;9.174;2023-09-19T10:26:01;22.80;99.90
48752;DHT22;34544;48.836;9.174;2023-09-19T10:28:28;23.20;99.90
48752;DHT22;34544;48.836;9.174;2023-09-19T10:30:56;23.70;99.90
48752;DHT22;34544;48.836;9.174;2023-09-19T10:33:24;24.00;99.90
48752;DHT22;34544;48.836;9.174;2023-09-19T10:35:59;24.40;99.90
48752;DHT22;34544;48.836;9.174;2023-09-19T10:38:27;24.70;99.90
48752;DHT22;34544;48.836;9.174;2023-09-19T10:40:55;24.60;99.90
48752;DHT22;34544;48.836;9.174;2023-09-19T10:43:26;25.10;99.90
48752;DHT22;34544;48.836;9.174;2023-09-19T10:46:00;25.60;99.90
48752;DHT22;34544;48.836;9.174;2023-09-19T10:48:26;26.00;99.90
48752;DHT22;34544;48.836;9.174;2023-09-19T10:51:21;26.70;99.50
48752;DHT22;34544;48.836;9.174;2023-09-19T10:53:53;27.40;99.90
48752;DHT22;34544;48.836;9.174;2023-09-19T10:56:24;27.60;99.90
48752;DHT22;34544;48.836;9.174;2023-09-19T10:59:11;27.60;96.70
48752;DHT22;34544;48.836;9.174;2023-09-19T11:01:49;27.50;95.40
48752;DHT22;34544;48.836;9.174;2023-09-19T11:04:34;27.50;95.20
48752;DHT22;34544;48.836;9.174;2023-09-19T11:07:13;27.20;94.20
48752;DHT22;34544;48.836;9.174;2023-09-19T11:09:54;27.60;94.30
48752;DHT22;34544;48.836;9.174;2023-09-19T11:14:55;27.30;94.80
48752;DHT22;34544;48.836;9.174;2023-09-19T11:30:49;28.10;94.00
48752;DHT22;34544;48.836;9.174;2023-09-19T11:33:16;28.00;99.90
48752;DHT22;34544;48.836;9.174;2023-09-19T11:36:09;28.20;99.90
48752;DHT22;34544;48.836;9.174;2023-09-19T11:46:32;28.50;99.90
48752;DHT22;34544;48.836;9.174;2023-09-19T11:49:09;28.70;99.90
48752;DHT22;34544;48.836;9.174;2023-09-19T11:51:44;28.70;99.90
48752;DHT22;34544;48.836;9.174;2023-09-19T11:54:11;28.20;99.90
48752;DHT22;34544;48.836;9.174;2023-09-19T11:56:45;28.00;99.90
48752;DHT22;34544;48.836;9.174;2023-09-19T11:59:11;27.30;99.90
48752;DHT22;34544;48.836;9.174;2023-09-19T12:01:39;27.00;99.90
48752;DHT22;34544;48.836;9.174;2023-09-19T12:04:11;27.10;99.90
48752;DHT22;34544;48.836;9.174;2023-09-19T12:06:37;27.70;99.90
48752;DHT22;34544;48.836;9.174;2023-09-19T12:09:12;28.20;99.90
48752;DHT22;34544;48.836;9.174;2023-09-19T12:11:42;29.00;99.90
48752;DHT22;34544;48.836;9.174;2023-09-19T12:14:11;29.60;91.70
48752;DHT22;34544;48.836;9.174;2023-09-19T12:16:37;30.40;91.10
48752;DHT22;34544;48.836;9.174;2023-09-19T12:19:20;30.80;97.20
48752;DHT22;34544;48.836;9.174;2023-09-19T12:21:55;30.80;90.60
48752;DHT22;34544;48.836;9.174;2023-09-19T12:24:24;30.80;89.90
48752;DHT22;34544;48.836;9.174;2023-09-19T12:29:22;30.00;96.70
48752;DHT22;34544;48.836;9.174;2023-09-19T12:31:56;29.60;95.60
48752;DHT22;34544;48.836;9.174;2023-09-19T12:34:30;29.20;94.60
48752;DHT22;34544;48.836;9.174;2023-09-19T12:37:07;28.80;95.30
48752;DHT22;34544;48.836;9.174;2023-09-19T12:39:52;28.50;95.70
48752;DHT22;34544;48.836;9.174;2023-09-19T12:42:26;28.10;91.20
48752;DHT22;34544;48.836;9.174;2023-09-19T12:44:58;27.50;91.50
48752;DHT22;34544;48.836;9.174;2023-09-19T12:47:27;27.20;94.10
48752;DHT22;34544;48.836;9.174;2023-09-19T12:50:15;27.40;93.60
48752;DHT22;34544;48.836;9.174;2023-09-19T12:55:26;27.80;93.10
48752;DHT22;34544;48.836;9.174;2023-09-19T13:00:43;28.50;91.40
48752;DHT22;34544;48.836;9.174;2023-09-19T13:03:26;29.30;90.90
48752;DHT22;34544;48.836;9.174;2023-09-19T13:05:55;29.30;90.30
48752;DHT22;34544;48.836;9.174;2023-09-19T13:08:29;28.60;90.40
48752;DHT22;34544;48.836;9.174;2023-09-19T13:11:13;28.40;90.70
48752;DHT22;34544;48.836;9.174;2023-09-19T13:13:47;28.90;90.90
48752;DHT22;34544;48.836;9.174;2023-09-19T13:16:15;29.70;91.00
48752;DHT22;34544;48.836;9.174;2023-09-19T13:18:47;30.10;90.50
48752;DHT22;34544;48.836;9.174;2023-09-19T13:21:15;30.30;90.40
48752;DHT22;34544;48.836;9.174;2023-09-19T13:23:53;30.70;92.30
48752;DHT22;34544;48.836;9.174;2023-09-19T13:26:20;31.40;96.90
48752;DHT22;34544;48.836;9.174;2023-09-19T13:31:14;31.20;99.90
48752;DHT22;34544;48.836;9.174;2023-09-19T13:33:45;30.90;95.90
48752;DHT22;34544;48.836;9.174;2023-09-19T13:36:11;30.80;92.10
48752;DHT22;34544;48.836;9.174;2023-09-19T13:38:39;30.70;91.60
48752;DHT22;34544;48.836;9.174;2023-09-19T13:41:06;30.30;91.60
48752;DHT22;34544;48.836;9.174;2023-09-19T13:43:32;30.10;86.40
48752;DHT22;34544;48.836;9.174;2023-09-19T13:45:58;29.90;86.30
48752;DHT22;34544;48.836;9.174;2023-09-19T13:48:23;30.40;87.70
48752;DHT22;34544;48.836;9.174;2023-09-19T13:50:49;31.20;86.40
48752;DHT22;34544;48.836;9.174;2023-09-19T13:53:15;31.70;84.30
48752;DHT22;34544;48.836;9.174;2023-09-19T13:55:42;31.20;84.00
48752;DHT22;34544;48.836;9.174;2023-09-19T13:58:08;31.20;85.70
48752;DHT22;34544;48.836;9.174;2023-09-19T14:00:36;31.50;84.80
48752;DHT22;34544;48.836;9.174;2023-09-19T14:03:02;31.30;84.10
48752;DHT22;34544;48.836;9.174;2023-09-19T14:05:29;31.50;83.70
48752;DHT22;34544;48.836;9.174;2023-09-19T14:07:55;31.70;83.40
48752;DHT22;34544;48.836;9.174;2023-09-19T14:10:21;31.40;83.10
48752;DHT22;34544;48.836;9.174;2023-09-19T14:12:47;31.30;84.60
48752;DHT22;34544;48.836;9.174;2023-09-19T14:15:13;31.30;84.50
48752;DHT22;34544;48.836;9.174;2023-09-19T14:17:40;31.50;82.80
48752;DHT22;34544;48.836;9.174;2023-09-19T14:20:11;31.10;83.10
48752;DHT22;34544;48.836;9.174;2023-09-19T14:22:36;30.60;83.80
48752;DHT22;34544;48.836;9.174;2023-09-19T14:25:03;30.00;83.80
48752;DHT22;34544;48.836;9.174;2023-09-19T14:27:30;29.40;84.60
48752;DHT22;34544;48.836;9.174;2023-09-19T14:29:55;29.20;88.60
48752;DHT22;34544;48.836;9.174;2023-09-19T14:32:23;29.30;85.50
48752;DHT22;34544;48.836;9.174;2023-09-19T14:34:48;29.00;85.50
48752;DHT22;34544;48.836;9.174;2023-09-19T14:37:14;28.70;86.40
48752;DHT22;34544;48.836;9.174;2023-09-19T14:39:41;28.40;94.00
48752;DHT22;34544;48.836;9.174;2023-09-19T14:42:10;28.30;92.90
48752;DHT22;34544;48.836;9.174;2023-09-19T14:44:36;28.30;92.90
48752;DHT22;34544;48.836;9.174;2023-09-19T14:47:05;28.20;92.20
48752;DHT22;34544;48.836;9.174;2023-09-19T14:49:35;28.30;91.00
48752;DHT22;34544;48.836;9.174;2023-09-19T14:52:09;28.40;90.80
48752;DHT22;34544;48.836;9.174;2023-09-19T14:54:36;28.50;90.70
48752;DHT22;34544;48.836;9.174;2023-09-19T14:57:04;28.50;90.20
48752;DHT22;34544;48.836;9.174;2023-09-19T14:59:32;28.50;90.00
48752;DHT22;34544;48.836;9.174;2023-09-19T15:01:59;28.50;90.00
48752;DHT22;34544;48.836;9.174;2023-09-19T15:04:27;28.20;90.00
48752;DHT22;34544;48.836;9.174;2023-09-19T15:06:53;28.20;90.10
48752;DHT22;34544;48.836;9.174;2023-09-19T15:09:23;28.10;89.40
48752;DHT22;34544;48.836;9.174;2023-09-19T15:11:52;27.90;89.10
48752;DHT22;34544;48.836;9.174;2023-09-19T15:14:18;27.80;88.10
48752;DHT22;34544;48.836;9.174;2023-09-19T15:16:43;27.50;88.20
48752;DHT22;34544;48.836;9.174;2023-09-19T15:19:09;27.50;88.40
48752;DHT22;34544;48.836;9.174;2023-09-19T15:21:36;27.40;86.20
48752;DHT22;34544;48.836;9.174;2023-09-19T15:24:03;27.60;85.50
48752;DHT22;34544;48.836;9.174;2023-09-19T15:26:29;27.60;85.30
48752;DHT22;34544;48.836;9.174;2023-09-19T15:28:55;27.30;85.60
48752;DHT22;34544;48.836;9.174;2023-09-19T15:31:22;27.40;85.80
48752;DHT22;34544;48.836;9.174;2023-09-19T15:33:47;27.30;86.00
48752;DHT22;34544;48.836;9.174;2023-09-19T15:36:14;27.10;85.80
48752;DHT22;34544;48.836;9.174;2023-09-19T15:41:29;26.70;85.80
48752;DHT22;34544;48.836;9.174;2023-09-19T15:43:56;26.40;86.60
48752;DHT22;34544;48.836;9.174;2023-09-19T15:46:22;26.10;87.80
48752;DHT22;34544;48.836;9.174;2023-09-19T15:48:48;25.90;93.40
48752;DHT22;34544;48.836;9.174;2023-09-19T15:51:14;25.50;99.40
48752;DHT22;34544;48.836;9.174;2023-09-19T15:53:45;25.20;99.90
48752;DHT22;34544;48.836;9.174;2023-09-19T15:56:11;24.80;96.60
48752;DHT22;34544;48.836;9.174;2023-09-19T16:01:05;24.30;90.40
48752;DHT22;34544;48.836;9.174;2023-09-19T16:03:37;24.20;90.80
48752;DHT22;34544;48.836;9.174;2023-09-19T16:06:14;24.10;91.30
48752;DHT22;34544;48.836;9.174;2023-09-19T16:08:44;24.00;91.40
48752;DHT22;34544;48.836;9.174;2023-09-19T16:11:11;23.90;91.80
48752;DHT22;34544;48.836;9.174;2023-09-19T16:13:37;23.80;92.00
48752;DHT22;34544;48.836;9.174;2023-09-19T16:16:03;23.70;92.40
48752;DHT22;34544;48.836;9.174;2023-09-19T16:18:30;23.60;92.90
48752;DHT22;34544;48.836;9.174;2023-09-19T16:21:02;23.50;92.70
48752;DHT22;34544;48.836;9.174;2023-09-19T16:23:28;23.40;94.60
48752;DHT22;34544;48.836;9.174;2023-09-19T16:26:04;23.40;98.00
48752;DHT22;34544;48.836;9.174;2023-09-19T16:28:31;23.30;99.90
48752;DHT22;34544;48.836;9.174;2023-09-19T16:30:58;23.10;99.90
48752;DHT22;34544;48.836;9.174;2023-09-19T16:33:25;23.10;99.90
48752;DHT22;34544;48.836;9.174;2023-09-19T16:35:51;22.90;94.00
48752;DHT22;34544;48.836;9.174;2023-09-19T16:38:18;22.80;94.40
48752;DHT22;34544;48.836;9.174;2023-09-19T16:40:54;22.80;94.60
48752;DHT22;34544;48.836;9.174;2023-09-19T16:43:22;22.70;94.70